Time;durP1;ratioP1;P1;durP2;ratioP2;P2;SDS_P1;SDS_P2;PMS_P1;PMS_P2;Temp;Humidity;BMP_temperature;BMP_pressure;BME280_temperature;BME280_humidity;BME280_pressure;Samples;Min_cycle;Max_cycle;Signal;HPM_P1;HPM_P2
2022/10/17 03:57:41;;;;;;;20.52;13.23;;;;;;;11.22;81.90;101927.28;5615794;31;78961;-55
2022/10/17 04:00:47;;;;;;;16.15;12.80;;;;;;;11.22;81.90;101927.28;5583891;31;33284;-55
2022/10/17 04:03:53;;;;;;;20.00;13.38;;;;;;;10.74;83.85;101926.84;5583937;31;33173;-55
2022/10/17 04:06:55;;;;;;;20.17;13.52;;;;;;;10.75;83.70;101931.16;5584185;31;33317;-55
2022/10/17 04:09:58;;;;;;;19.98;13.50;;;;;;;10.78;83.83;101935.22;5583903;31;33196;-56
2022/10/17 04:13:01;;;;;;;20.30;12.95;;;;;;;10.86;83.98;101942.88;5584022;31;34317;-55
2022/10/17 04:16:06;;;;;;;16.70;12.95;;;;;;;10.94;83.45;101939.78;5583617;31;34136;-56
2022/10/17 04:19:12;;;;;;;15.75;12.93;;;;;;;10.85;83.67;101938.53;5583948;31;33381;-56
2022/10/17 04:22:14;;;;;;;18.27;13.57;;;;;;;10.93;83.47;101943.53;5583436;31;33960;-55
2022/10/17 04:25:16;;;;;;;16.98;12.85;;;;;;;11.00;83.29;101948.72;5583825;32;34270;-56
2022/10/17 04:28:19;;;;;;;19.15;13.70;;;;;;;10.94;83.94;101961.25;5574125;31;33639;-56
2022/10/17 04:31:21;;;;;;;18.33;13.20;;;;;;;10.95;84.20;101956.69;5564345;32;33669;-55
2022/10/17 04:34:26;;;;;;;16.25;14.20;;;;;;;10.98;84.03;101957.00;5564029;32;33338;-56
2022/10/17 04:37:29;;;;;;;20.58;12.48;;;;;;;11.03;83.99;101964.34;5563868;32;33650;-55
2022/10/17 04:40:32;;;;;;;16.35;12.25;;;;;;;11.00;84.08;101964.81;5579091;31;33186;-55
2022/10/17 04:43:35;;;;;;;15.30;12.63;;;;;;;11.13;83.78;101952.94;5581708;31;33617;-55
2022/10/17 04:46:38;;;;;;;19.98;12.98;;;;;;;11.21;83.51;101956.00;5577306;31;33459;-56
2022/10/17 04:49:40;;;;;;;20.02;13.45;;;;;;;11.21;83.02;101956.00;5577714;31;34514;-53
2022/10/17 04:52:49;;;;;;;19.62;13.55;;;;;;;11.14;84.06;101965.31;5580039;32;33849;-52
2022/10/17 04:55:51;;;;;;;17.90;13.25;;;;;;;11.13;84.39;101961.81;5582565;32;33716;-56
2022/10/17 04:58:54;;;;;;;18.40;12.85;;;;;;;11.16;84.56;101969.37;5583027;31;33929;-55
2022/10/17 05:01:56;;;;;;;19.48;13.88;;;;;;;11.13;84.91;101969.88;5582081;31;32659;-56
2022/10/17 05:04:59;;;;;;;22.87;13.00;;;;;;;11.14;84.65;101973.34;5581896;31;34154;-55
2022/10/17 05:08:01;;;;;;;19.87;13.95;;;;;;;11.20;84.04;101975.87;5571174;31;33743;-56
2022/10/17 05:11:12;;;;;;;16.92;13.80;;;;;;;11.26;84.20;101972.22;5568381;32;33542;-56
2022/10/17 05:14:15;;;;;;;19.15;12.75;;;;;;;11.29;83.84;101981.63;5564354;32;34293;-56
2022/10/17 05:17:17;;;;;;;19.75;13.38;;;;;;;11.29;83.56;101979.78;5565884;32;34426;-56
2022/10/17 05:20:19;;;;;;;20.20;14.07;;;;;;;11.26;84.33;101979.47;5552669;32;33229;-56
2022/10/17 05:23:25;;;;;;;20.30;13.88;;;;;;;11.24;84.08;101986.94;5562926;32;32789;-56
2022/10/17 05:26:28;;;;;;;16.60;14.07;;;;;;;11.25;84.47;101991.25;5561646;32;34344;-56
2022/10/17 05:29:30;;;;;;;18.52;14.40;;;;;;;11.28;84.29;101993.44;5567304;32;33435;-55
2022/10/17 05:32:35;;;;;;;23.27;15.48;;;;;;;11.28;84.43;102002.28;5567552;32;34445;-55
2022/10/17 05:35:38;;;;;;;25.35;14.48;;;;;;;11.20;85.15;102004.59;5568566;31;32720;-56
2022/10/17 05:38:41;;;;;;;23.67;14.60;;;;;;;11.19;85.64;102011.00;5567909;31;33350;-55
2022/10/17 05:41:45;;;;;;;33.33;15.20;;;;;;;11.24;85.75;102014.59;5569534;32;34221;-55
2022/10/17 05:44:48;;;;;;;25.55;14.18;;;;;;;11.34;85.54;102013.94;5567011;32;33761;-56
2022/10/17 05:47:51;;;;;;;30.30;15.25;;;;;;;11.32;85.77;102020.59;5567337;32;33232;-56
2022/10/17 05:50:58;;;;;;;29.90;14.27;;;;;;;11.31;86.51;102027.84;5566717;32;33701;-56
2022/10/17 05:54:03;;;;;;;30.35;14.15;;;;;;;11.45;86.08;102029.13;5563375;32;34207;-55
2022/10/17 05:57:06;;;;;;;30.02;14.98;;;;;;;11.50;86.11;102025.72;5568394;31;34124;-56
2022/10/17 06:00:10;;;;;;;25.10;14.20;;;;;;;11.45;86.95;102037.19;5567303;32;33303;-55
2022/10/17 06:03:14;;;;;;;36.08;14.95;;;;;;;11.45;87.13;102041.75;5556212;32;34184;-56
2022/10/17 06:06:18;;;;;;;23.20;15.13;;;;;;;11.55;86.82;102047.28;5568335;32;33322;-55
2022/10/17 06:09:21;;;;;;;23.35;14.75;;;;;;;11.68;86.83;102051.50;5568673;31;33444;-56
2022/10/17 06:12:25;;;;;;;24.77;14.55;;;;;;;11.81;86.39;102056.53;5566562;32;34427;-56
2022/10/17 06:15:28;;;;;;;21.92;15.10;;;;;;;11.86;87.07;102059.31;5569370;31;33461;-55
2022/10/17 06:18:31;;;;;;;44.88;15.68;;;;;;;11.90;87.20;102070.37;5566962;32;34129;-56
2022/10/17 06:21:36;;;;;;;29.08;15.82;;;;;;;11.91;88.65;102072.00;5567503;31;32478;-55
2022/10/17 06:24:39;;;;;;;21.42;16.05;;;;;;;12.03;88.18;102075.41;5568215;31;34155;-56
2022/10/17 06:27:41;;;;;;;22.60;15.73;;;;;;;12.16;87.55;102072.34;5568906;31;34392;-55
2022/10/17 06:30:44;;;;;;;20.20;15.25;;;;;;;12.22;87.53;102079.44;5568438;31;33416;-56
2022/10/17 06:33:47;;;;;;;24.00;16.30;;;;;;;12.28;87.97;102072.22;5567746;32;33586;-55
2022/10/17 06:36:49;;;;;;;29.52;17.92;;;;;;;12.40;87.76;102080.97;5567410;31;34391;-56
2022/10/17 06:39:51;;;;;;;24.90;16.17;;;;;;;12.43;86.68;102085.06;5569080;32;33286;-56
2022/10/17 06:42:55;;;;;;;22.30;16.50;;;;;;;12.62;85.13;102083.69;5566832;32;33300;-55
2022/10/17 06:45:57;;;;;;;25.67;16.52;;;;;;;12.76;85.69;102096.75;5569286;32;33463;-56
2022/10/17 06:49:00;;;;;;;26.30;16.90;;;;;;;12.75;85.93;102092.41;5567584;32;33344;-56
2022/10/17 06:52:02;;;;;;;24.20;16.85;;;;;;;12.81;82.86;102094.09;5564286;31;33266;-56
2022/10/17 06:55:05;;;;;;;21.25;17.45;;;;;;;12.90;82.17;102101.44;5567206;31;33287;-56
2022/10/17 06:58:08;;;;;;;25.62;17.05;;;;;;;13.07;80.31;102101.34;5567814;31;34118;-56
2022/10/17 07:01:12;;;;;;;36.10;17.08;;;;;;;13.22;77.22;102108.78;5567825;31;31965;-56
2022/10/17 07:04:14;;;;;;;28.62;16.52;;;;;;;13.31;75.60;102101.88;5567797;32;33841;-56
2022/10/17 07:07:17;;;;;;;23.75;16.87;;;;;;;13.36;77.70;102111.87;5567386;32;34399;-56
2022/10/17 07:10:20;;;;;;;30.60;16.27;;;;;;;13.46;76.96;102106.56;5567593;32;33313;-56
2022/10/17 07:13:24;;;;;;;21.58;14.63;;;;;;;13.56;75.63;102109.34;5568199;32;31934;-56
2022/10/17 07:16:26;;;;;;;30.83;15.57;;;;;;;13.62;75.78;102123.69;5566380;32;33700;-56
2022/10/17 07:19:30;;;;;;;15.77;12.35;;;;;;;13.62;75.29;102112.91;5562795;31;33278;-56
2022/10/17 07:22:32;;;;;;;19.50;12.43;;;;;;;13.72;69.83;102123.75;5567266;32;33628;-56
2022/10/17 07:25:36;;;;;;;16.75;12.80;;;;;;;13.83;70.70;102114.66;5566652;32;33309;-56
2022/10/17 07:28:43;;;;;;;20.42;15.02;;;;;;;13.97;66.48;102115.03;5567450;32;33135;-56
2022/10/17 07:31:48;;;;;;;;;;;;;;;14.16;65.92;102115.41;5568015;31;33393;-55
2022/10/17 07:34:50;;;;;;;21.87;14.75;;;;;;;14.25;66.15;102115.72;5565588;32;34148;-56
2022/10/17 07:37:53;;;;;;;26.62;16.33;;;;;;;14.17;68.28;102110.81;5567330;32;33405;-57
2022/10/17 07:41:01;;;;;;;21.35;15.07;;;;;;;14.14;66.98;102116.72;5565750;32;34514;-56
2022/10/17 07:44:03;;;;;;;24.75;14.55;;;;;;;14.16;68.26;102123.50;5567675;31;33398;-56
2022/10/17 07:47:06;;;;;;;1999.90;287.65;;;;;;;14.13;67.56;102113.22;5568205;31;34478;-56
2022/10/17 07:50:11;;;;;;;658.70;58.23;;;;;;;14.27;65.49;102129.75;5563938;31;34434;-56
2022/10/17 07:53:13;;;;;;;71.07;18.10;;;;;;;14.37;66.97;102126.28;5566928;32;34420;-56
2022/10/17 07:56:16;;;;;;;22.87;15.65;;;;;;;14.40;66.98;102123.88;5563759;32;33660;-56
2022/10/17 07:59:18;;;;;;;28.45;15.77;;;;;;;14.49;64.97;102126.88;5565140;32;33720;-56
2022/10/17 08:02:23;;;;;;;19.58;15.25;;;;;;;14.51;64.09;102122.88;5562024;32;33918;-56
2022/10/17 08:05:25;;;;;;;19.87;15.10;;;;;;;14.54;63.70;102127.75;5549785;32;33655;-56
2022/10/17 08:08:28;;;;;;;21.42;15.23;;;;;;;14.60;63.52;102133.16;5565629;32;34015;-56
2022/10/17 08:11:31;;;;;;;52.47;17.75;;;;;;;14.65;63.92;102133.19;5565813;32;34263;-56
2022/10/17 08:14:33;;;;;;;38.47;16.05;;;;;;;14.74;65.60;102140.53;5564010;32;33631;-57
2022/10/17 08:17:37;;;;;;;24.25;16.00;;;;;;;14.78;63.04;102143.50;5564001;32;34359;-56
2022/10/17 08:20:40;;;;;;;28.40;15.57;;;;;;;14.90;63.72;102138.69;5564684;32;34303;-56
2022/10/17 08:23:43;;;;;;;30.73;16.52;;;;;;;14.87;63.70;102150.00;5566204;32;34895;-56
2022/10/17 08:26:45;;;;;;;23.38;15.85;;;;;;;14.82;64.52;102149.19;5564643;32;33658;-56
2022/10/17 08:29:53;;;;;;;21.27;15.02;;;;;;;14.99;63.01;102144.34;5564480;32;34467;-56
2022/10/17 08:32:55;;;;;;;19.30;15.63;;;;;;;15.05;62.48;102146.00;5561181;32;32000;-56
2022/10/17 08:35:59;;;;;;;22.27;15.75;;;;;;;15.25;60.67;102142.50;5566134;32;34296;-54
2022/10/17 08:39:03;;;;;;;21.77;14.85;;;;;;;15.21;61.03;102141.44;5566441;32;33643;-54
2022/10/17 08:42:42;;;;;;;24.05;16.25;;;;;;;15.23;60.37;102147.38;5566701;32;33552;-53
2022/10/17 08:46:05;;;;;;;45.45;17.25;;;;;;;15.33;60.34;102139.28;5552482;32;33611;-53
2022/10/17 08:49:19;;;;;;;22.27;15.23;;;;;;;15.23;62.37;102144.66;5568059;32;33643;-54
2022/10/17 08:52:48;;;;;;;24.27;15.23;;;;;;;15.27;61.95;102140.38;5567400;32;34389;-53
2022/10/17 08:55:52;;;;;;;19.02;14.23;;;;;;;15.36;61.08;102141.44;5567685;32;33797;-54
2022/10/17 08:58:54;;;;;;;30.15;17.75;;;;;;;15.48;61.19;102143.88;5563941;32;33706;-53
2022/10/17 09:02:19;;;;;;;27.70;15.57;;;;;;;15.62;60.27;102142.25;5568632;32;33597;-53
2022/10/17 09:05:54;;;;;;;17.75;14.85;;;;;;;15.66;58.74;102139.81;5563856;32;33623;-54
2022/10/17 09:09:49;;;;;;;30.80;19.37;;;;;;;15.72;59.85;102141.47;5560742;32;34423;-55
2022/10/17 09:13:19;;;;;;;38.20;22.83;;;;;;;15.79;60.61;102146.59;5563435;32;34417;-54
2022/10/17 09:17:03;;;;;;;24.42;13.00;;;;;;;15.84;60.87;102142.00;5567678;32;33677;-54
2022/10/17 09:20:13;;;;;;;197.27;23.00;;;;;;;15.93;58.65;102145.78;5567062;31;33731;-54
2022/10/17 09:23:23;;;;;;;44.85;15.57;;;;;;;15.96;60.17;102141.72;5566998;32;33625;-53
2022/10/17 09:26:26;;;;;;;42.08;14.35;;;;;;;16.08;60.18;102131.41;5566019;32;34400;-54
2022/10/17 09:29:28;;;;;;;214.77;79.85;;;;;;;16.08;59.26;102134.09;5568163;32;33728;-54
2022/10/17 09:32:39;;;;;;;26.37;15.13;;;;;;;16.21;58.70;102124.59;5566351;32;33608;-54
2022/10/17 09:35:43;;;;;;;52.67;21.45;;;;;;;16.26;58.25;102135.44;5569966;32;33709;-54
2022/10/17 09:38:52;;;;;;;18.58;11.45;;;;;;;16.27;59.47;102138.94;5566350;32;33665;-54
2022/10/17 09:41:56;;;;;;;129.98;55.20;;;;;;;16.36;59.23;102134.59;5567077;32;34353;-54
2022/10/17 09:45:10;;;;;;;64.78;28.27;;;;;;;16.45;60.84;102139.13;5567471;32;33962;-54
2022/10/17 09:48:21;;;;;;;81.57;32.72;;;;;;;16.42;57.17;102137.00;5566807;31;34341;-55
2022/10/17 09:51:24;;;;;;;274.05;104.90;;;;;;;16.48;57.64;102140.47;5567309;32;33848;-54
2022/10/17 09:54:48;;;;;;;37.92;17.55;;;;;;;16.57;56.86;102135.31;5566586;32;34189;-54
2022/10/17 09:57:58;;;;;;;147.62;61.40;;;;;;;16.53;57.32;102131.53;5566878;32;34547;-54
2022/10/17 10:01:18;;;;;;;42.62;23.25;;;;;;;16.65;56.66;102138.25;5569341;32;34393;-53
2022/10/17 10:04:25;;;;;;;22.50;10.85;;;;;;;16.69;57.56;102135.81;5568757;32;34371;-53
2022/10/17 10:07:37;;;;;;;45.65;19.17;;;;;;;16.67;57.27;102133.34;5568623;32;33770;-54
2022/10/17 10:10:42;;;;;;;50.67;22.40;;;;;;;16.68;56.57;102129.56;5565365;32;34444;-54
2022/10/17 10:13:46;;;;;;;37.38;19.25;;;;;;;16.79;56.99;102127.66;5566755;32;33910;-54
2022/10/17 10:16:52;;;;;;;18.25;10.52;;;;;;;16.94;56.58;102121.31;5555664;32;33481;-54
2022/10/17 10:19:54;;;;;;;20.67;10.82;;;;;;;16.93;55.44;102127.03;5561451;32;34370;-55
2022/10/17 10:23:04;;;;;;;19.12;11.00;;;;;;;16.95;55.25;102128.34;5560651;32;33725;-54
2022/10/17 10:26:31;;;;;;;15.05;8.70;;;;;;;16.97;56.02;102120.75;5569098;32;32965;-54
2022/10/17 10:29:40;;;;;;;14.48;9.02;;;;;;;17.08;56.11;102118.78;5569395;32;33346;-53
2022/10/17 10:32:46;;;;;;;17.58;9.57;;;;;;;17.05;55.61;102119.34;5568807;32;34302;-54
2022/10/17 10:36:00;;;;;;;14.35;7.87;;;;;;;17.07;59.15;102111.75;5567080;32;34419;-54
2022/10/17 10:39:03;;;;;;;13.55;8.35;;;;;;;17.16;54.74;102117.41;5561067;32;33838;-54
2022/10/17 10:42:17;;;;;;;11.80;6.68;;;;;;;17.24;54.78;102105.94;5564613;32;33674;-53
2022/10/17 10:45:22;;;;;;;11.00;6.75;;;;;;;17.30;53.05;102107.53;5567077;32;33890;-54
2022/10/17 10:48:59;;;;;;;9.90;6.68;;;;;;;17.40;52.98;102106.62;5551082;32;33660;-54
2022/10/17 10:52:03;;;;;;;12.18;6.47;;;;;;;17.35;53.54;102105.59;5564679;32;33062;-54
2022/10/17 10:55:28;;;;;;;11.43;6.87;;;;;;;17.41;53.42;102110.97;5564210;31;33633;-54
2022/10/17 10:58:51;;;;;;;14.87;7.03;;;;;;;17.56;52.93;102106.22;5559550;32;33785;-55
2022/10/17 11:02:01;;;;;;;12.20;7.43;;;;;;;17.69;52.19;102095.81;5564856;32;33121;-54
2022/10/17 11:05:26;;;;;;;15.77;7.18;;;;;;;17.76;52.31;102094.41;5563618;32;34212;-54
2022/10/17 11:08:37;;;;;;;11.20;6.90;;;;;;;17.67;53.29;102090.66;5565649;31;33682;-54
2022/10/17 11:11:46;;;;;;;9.15;6.00;;;;;;;17.71;53.03;102097.13;5563441;32;33457;-56
2022/10/17 11:15:00;;;;;;;12.63;7.00;;;;;;;17.73;51.93;102094.13;5562512;32;33363;-57
2022/10/17 11:18:25;;;;;;;13.60;6.75;;;;;;;17.87;52.06;102099.72;5567554;32;34240;-57
2022/10/17 11:21:39;;;;;;;10.70;5.78;;;;;;;17.90;51.33;102089.09;5563394;31;34331;-57
2022/10/17 11:24:55;;;;;;;12.93;6.57;;;;;;;17.86;52.98;102085.34;5566003;32;33691;-56
2022/10/17 11:27:58;;;;;;;14.32;6.78;;;;;;;17.93;52.38;102080.38;5565772;32;33064;-57
2022/10/17 11:31:13;;;;;;;12.90;6.40;;;;;;;18.00;52.71;102082.75;5564993;32;33676;-54
2022/10/17 11:34:22;;;;;;;11.90;7.10;;;;;;;17.99;52.86;102081.94;5565358;32;33715;-54
2022/10/17 11:37:36;;;;;;;11.10;6.35;;;;;;;18.08;55.16;102079.41;5562980;32;33655;-54
2022/10/17 11:40:46;;;;;;;8.40;5.37;;;;;;;18.07;52.51;102072.34;5568523;32;34399;-54
2022/10/17 11:43:56;;;;;;;11.93;5.68;;;;;;;18.01;52.07;102068.91;5552471;32;33499;-54
2022/10/17 11:47:26;;;;;;;8.90;6.12;;;;;;;18.04;52.72;102062.88;5548300;32;33184;-55
2022/10/17 11:50:36;;;;;;;10.23;5.78;;;;;;;18.06;52.42;102068.03;5567401;32;33634;-55
2022/10/17 11:54:23;;;;;;;9.05;6.05;;;;;;;18.08;52.04;102063.94;5566048;32;33655;-54
2022/10/17 11:57:33;;;;;;;16.58;6.35;;;;;;;18.19;53.01;102070.03;5565339;32;33919;-55
2022/10/17 12:00:51;;;;;;;10.45;5.78;;;;;;;18.21;53.97;102062.44;5564323;32;33624;-55
2022/10/17 12:03:56;;;;;;;11.45;6.30;;;;;;;18.19;52.56;102056.47;5568135;32;33739;-55
2022/10/17 12:07:06;;;;;;;11.30;5.80;;;;;;;18.16;52.77;102059.75;5568102;32;33139;-55
2022/10/17 12:10:29;;;;;;;10.23;5.30;;;;;;;18.26;51.33;102059.63;5568323;32;34279;-54
2022/10/17 12:13:32;;;;;;;7.60;5.15;;;;;;;18.26;51.84;102056.13;5567569;32;33652;-54
2022/10/17 12:16:34;;;;;;;10.60;4.95;;;;;;;18.28;51.27;102043.06;5564570;32;33720;-54
2022/10/17 12:19:36;;;;;;;11.88;6.10;;;;;;;18.27;51.64;102042.22;5566752;32;33348;-55
2022/10/17 12:22:47;;;;;;;14.60;7.93;;;;;;;18.31;52.82;102047.91;5569038;32;33166;-55
2022/10/17 12:25:54;;;;;;;10.85;6.00;;;;;;;18.33;52.31;102034.84;5557564;32;34338;-55
2022/10/17 12:29:01;;;;;;;10.25;5.68;;;;;;;18.40;54.35;102031.75;5557298;32;33653;-55
2022/10/17 12:32:11;;;;;;;12.30;5.87;;;;;;;18.43;51.50;102031.97;5568517;32;34506;-55
2022/10/17 12:35:21;;;;;;;13.90;8.85;;;;;;;18.49;50.58;102035.44;5568335;32;34334;-55
2022/10/17 12:38:25;;;;;;;12.85;5.15;;;;;;;18.45;51.54;102029.00;5568179;32;33488;-55
2022/10/17 12:41:38;;;;;;;13.18;6.72;;;;;;;18.42;51.39;102022.22;5568874;32;34292;-56
2022/10/17 12:44:40;;;;;;;9.70;5.35;;;;;;;18.50;52.43;102018.84;5568436;32;34039;-55
2022/10/17 12:47:43;;;;;;;10.23;6.28;;;;;;;18.44;51.22;102017.31;5554106;32;34457;-54
2022/10/17 12:51:09;;;;;;;14.45;7.15;;;;;;;18.51;50.18;102025.09;5561962;32;34256;-55
2022/10/17 12:54:39;;;;;;;10.50;5.30;;;;;;;18.53;50.04;102014.75;5557672;32;33639;-55
2022/10/17 12:58:02;;;;;;;8.20;4.80;;;;;;;18.60;49.96;102023.31;5563216;32;33708;-55
2022/10/17 13:01:16;;;;;;;10.50;6.90;;;;;;;18.53;49.06;102023.69;5552055;32;33742;-55
2022/10/17 13:04:27;;;;;;;8.02;4.82;;;;;;;18.54;49.77;102022.59;5570181;32;33706;-55
2022/10/17 13:07:33;;;;;;;6.87;4.45;;;;;;;18.58;51.17;102019.31;5570519;32;33675;-55
2022/10/17 13:10:38;;;;;;;12.23;5.15;;;;;;;18.55;50.60;102023.41;5569372;32;33810;-55
2022/10/17 13:13:50;;;;;;;11.15;5.50;;;;;;;18.64;49.78;102016.22;5566962;32;33544;-55
2022/10/17 13:16:57;;;;;;;8.95;4.82;;;;;;;18.66;49.54;102018.62;5566054;32;33763;-55
2022/10/17 13:19:59;;;;;;;10.10;4.85;;;;;;;18.63;50.06;102009.16;5570204;32;33784;-55
2022/10/17 13:23:02;;;;;;;12.90;5.68;;;;;;;18.68;51.36;102005.56;5569480;32;34273;-55
2022/10/17 13:26:15;;;;;;;10.88;5.07;;;;;;;18.74;50.65;102010.66;5568823;32;33640;-55
2022/10/17 13:29:19;;;;;;;10.38;5.12;;;;;;;18.75;51.86;102003.31;5565436;31;33474;-55
2022/10/17 13:32:23;;;;;;;11.23;4.93;;;;;;;18.70;50.08;102004.16;5565413;32;33717;-55
2022/10/17 13:35:29;;;;;;;9.55;5.15;;;;;;;18.68;50.35;102009.09;5564138;32;34317;-55
2022/10/17 13:38:52;;;;;;;15.05;5.53;;;;;;;18.67;50.18;102010.16;5561275;32;34350;-55
2022/10/17 13:41:56;;;;;;;9.75;5.50;;;;;;;18.74;53.19;102002.50;5569554;32;33765;-55
2022/10/17 13:44:59;;;;;;;39.35;9.00;;;;;;;18.72;52.01;102002.00;5569619;32;33972;-55
2022/10/17 13:48:05;;;;;;;16.85;6.57;;;;;;;18.75;51.52;101998.69;5562387;32;33864;-55
2022/10/17 13:51:07;;;;;;;11.90;5.60;;;;;;;18.70;53.64;101998.72;5569935;32;33781;-55
2022/10/17 13:54:28;;;;;;;16.48;6.10;;;;;;;18.68;52.82;102002.84;5567834;32;34328;-55
2022/10/17 13:57:31;;;;;;;15.50;5.65;;;;;;;18.67;52.79;102002.03;5569553;32;33604;-55
2022/10/17 14:00:34;;;;;;;15.13;4.97;;;;;;;18.70;52.29;102001.44;5569245;32;33689;-55
2022/10/17 14:03:38;;;;;;;22.15;6.47;;;;;;;18.67;51.26;102006.66;5568887;32;34323;-55
2022/10/17 14:06:50;;;;;;;14.48;5.47;;;;;;;18.72;52.05;101996.56;5568874;32;33643;-56
2022/10/17 14:09:53;;;;;;;10.45;5.35;;;;;;;18.70;51.54;101992.47;5569047;32;33663;-55
2022/10/17 14:12:56;;;;;;;13.32;5.40;;;;;;;18.70;50.58;101992.47;5569863;32;33832;-55
2022/10/17 14:16:01;;;;;;;21.92;6.10;;;;;;;18.68;52.38;101992.78;5566324;32;34339;-55
2022/10/17 14:19:05;;;;;;;15.75;5.93;;;;;;;18.69;52.50;101994.41;5567505;32;33638;-55
2022/10/17 14:22:21;;;;;;;13.13;5.28;;;;;;;18.75;51.93;101989.72;5568865;32;33882;-55
2022/10/17 14:25:30;;;;;;;8.93;5.65;;;;;;;18.76;50.60;101983.19;5568190;32;33924;-55
2022/10/17 14:28:33;;;;;;;8.48;5.45;;;;;;;18.71;50.88;101984.06;5569687;32;33764;-55
2022/10/17 14:31:36;;;;;;;15.27;6.00;;;;;;;18.67;50.81;101984.91;5567220;32;34361;-55
2022/10/17 14:34:39;;;;;;;15.52;5.62;;;;;;;18.69;52.88;101985.44;5568724;32;34587;-55
2022/10/17 14:37:44;;;;;;;12.43;5.10;;;;;;;18.69;52.68;101986.25;5569527;32;33764;-55
2022/10/17 14:41:13;;;;;;;105.90;13.68;;;;;;;18.65;52.59;101995.28;5567734;32;34493;-55
2022/10/17 14:44:35;;;;;;;17.55;5.43;;;;;;;18.62;52.91;101996.69;5569385;32;34511;-55
2022/10/17 14:47:38;;;;;;;14.07;5.43;;;;;;;18.53;52.28;101985.66;5564892;32;34329;-55
2022/10/17 14:51:14;;;;;;;11.40;5.50;;;;;;;18.52;52.40;101988.69;5565077;32;33820;-54
2022/10/17 14:54:31;;;;;;;11.65;5.40;;;;;;;18.52;52.39;101986.78;5567491;32;34304;-55
2022/10/17 14:57:41;;;;;;;22.52;5.53;;;;;;;18.57;51.54;101994.03;5569389;32;33772;-55
2022/10/17 15:00:44;;;;;;;12.57;5.20;;;;;;;18.51;52.48;101987.88;5567416;32;33779;-55
2022/10/17 15:03:46;;;;;;;12.68;5.65;;;;;;;18.49;52.80;101987.38;5566272;32;32266;-55
2022/10/17 15:06:53;;;;;;;15.50;5.95;;;;;;;18.46;51.97;101987.16;5567597;32;33724;-56
2022/10/17 15:09:56;;;;;;;14.85;6.05;;;;;;;18.44;52.38;101979.31;5566851;32;34491;-55
2022/10/17 15:12:59;;;;;;;10.93;4.97;;;;;;;18.39;52.10;101986.72;5567036;32;33761;-55
2022/10/17 15:16:24;;;;;;;9.13;5.62;;;;;;;18.34;52.28;101982.16;5569432;32;33727;-55
2022/10/17 15:19:26;;;;;;;9.97;5.40;;;;;;;18.31;52.92;101989.00;5569216;32;34456;-55
